This is the latest recevied weather packets stored in our database for station/object NR0Q. If no packets are shown the sender has not sent any weather packets the latest 10 day(s).
| Time | Temp. | Humidity | Pressure | Rain* | Wind** | Luminosity | Snow |
|---|---|---|---|---|---|---|---|
| 1777572001 | 17.22° C | 53% | 1018.6 hPa | 0 mm | - | - | - |
| 1777571101 | 17.78° C | 49% | 0 hPa | 0 mm | - | - | - |
| 1777570201 | 17.78° C | 49% | 0 hPa | 0 mm | - | - | - |
| 1777569301 | 16.67° C | 55% | 0 hPa | 0 mm | - | - | - |
| 1777568401 | 16.11° C | 58% | 0 hPa | 0 mm | - | - | - |
| 1777567501 | 15.56° C | 64% | 0 hPa | 0 mm | - | - | - |
| 1777566601 | 15.56° C | 63% | 1020.7 hPa | 0 mm | - | - | - |
| 1777565701 | 14.44° C | 66% | 1020.7 hPa | 0 mm | - | - | - |
| 1777564801 | 14.44° C | 64% | 1020.7 hPa | 0 mm | - | - | - |
| 1777563901 | 13.89° C | 68% | 1020.7 hPa | 0 mm | - | - | - |
| 1777563001 | 13.33° C | 67% | 1020.7 hPa | 0 mm | - | - | - |
| 1777562101 | 13.33° C | 69% | 0 hPa | 0 mm | - | - | - |
| 1777561205 | 13.33° C | 69% | 0 hPa | 0 mm | - | - | - |
| 1777560301 | 13.33° C | 70% | 0 hPa | 0 mm | - | - | - |
| 1777559401 | 12.78° C | 70% | 0 hPa | 0 mm | - | - | - |
| 1777558501 | 12.22° C | 74% | 0 hPa | 0 mm | - | - | - |
| 1777557601 | 11.67° C | 74% | 0 hPa | 0 mm | - | - | - |
| 1777556701 | 11.67° C | 77% | 0 hPa | 0 mm | - | - | - |
| 1777555801 | 11.11° C | 76% | 0 hPa | 0 mm | - | - | - |
| 1777554901 | 11.11° C | 74% | 0 hPa | 0 mm | - | - | - |
| 1777554001 | 11.67° C | 74% | 0 hPa | 0 mm | - | - | - |
| 1777553101 | 11.11° C | 76% | 0 hPa | 0 mm | - | - | - |
| 1777552201 | 10.56° C | 77% | 1018.6 hPa | 0 mm | - | - | - |
| 1777551301 | 9.44° C | 81% | 1018.6 hPa | 0 mm | - | - | - |
| 1777550401 | 8.89° C | 84% | 1018.6 hPa | 0 mm | - | - | - |
* Rain latest hour (hover to see other rain measurements)
** Current wind speed in m/s (hover to see current wind gust speed)